createdAt,value
2022-12-04T00:00:39.262Z,11.50
2022-12-04T00:03:42.805Z,13.35
2022-12-04T00:06:46.000Z,13.80
2022-12-04T00:09:49.583Z,14.27
2022-12-04T00:12:52.770Z,14.07
2022-12-04T00:15:56.232Z,15.35
2022-12-04T00:18:59.758Z,15.40
2022-12-04T00:22:03.309Z,16.00
2022-12-04T00:25:06.931Z,14.05
2022-12-04T00:28:10.235Z,15.73
2022-12-04T00:31:23.157Z,14.13
2022-12-04T00:34:26.537Z,15.32
2022-12-04T00:37:30.107Z,14.30
2022-12-04T00:40:33.738Z,14.32
2022-12-04T00:43:42.128Z,16.53
2022-12-04T00:46:45.323Z,14.00
2022-12-04T00:49:48.841Z,13.00
2022-12-04T00:52:52.251Z,14.88
2022-12-04T00:55:55.790Z,15.95
2022-12-04T00:59:01.373Z,17.10
2022-12-04T01:02:05.156Z,15.05
2022-12-04T01:05:08.897Z,16.53
2022-12-04T01:08:13.093Z,15.15
2022-12-04T01:11:20.611Z,15.68
2022-12-04T01:14:23.798Z,16.30
2022-12-04T01:17:27.255Z,16.83
2022-12-04T01:20:30.805Z,16.38
2022-12-04T01:23:34.311Z,19.77
2022-12-04T01:26:37.628Z,17.53
2022-12-04T01:29:40.964Z,17.63
2022-12-04T01:32:44.200Z,15.77
2022-12-04T01:35:53.901Z,18.42
2022-12-04T01:38:57.463Z,17.45
2022-12-04T01:42:00.687Z,17.65
2022-12-04T01:45:50.670Z,17.60
2022-12-04T01:48:55.319Z,14.63
2022-12-04T01:52:07.243Z,13.40
2022-12-04T01:55:10.464Z,16.33
2022-12-04T01:58:13.960Z,15.47
2022-12-04T02:01:17.355Z,17.38
2022-12-04T02:04:20.924Z,18.25
2022-12-04T02:07:24.205Z,15.15
2022-12-04T02:10:59.433Z,14.35
2022-12-04T02:14:20.287Z,16.15
2022-12-04T02:17:28.851Z,14.80
2022-12-04T02:20:58.188Z,16.27
2022-12-04T02:24:16.190Z,14.80
2022-12-04T02:27:47.747Z,15.50
2022-12-04T02:30:56.091Z,14.57
2022-12-04T02:34:07.280Z,12.55
2022-12-04T02:37:16.140Z,15.13
2022-12-04T02:40:30.009Z,16.00
2022-12-04T02:43:59.413Z,14.80
2022-12-04T02:47:07.398Z,15.20
2022-12-04T02:50:15.812Z,13.38
2022-12-04T02:53:33.611Z,13.17
2022-12-04T02:56:41.080Z,15.48
2022-12-04T02:59:47.725Z,13.93
2022-12-04T03:03:02.966Z,14.90
2022-12-04T03:06:11.628Z,13.77
2022-12-04T03:09:44.840Z,17.20
2022-12-04T03:12:54.228Z,14.77
2022-12-04T03:16:04.962Z,12.77
2022-12-04T03:19:29.684Z,13.25
2022-12-04T03:22:36.661Z,13.40
2022-12-04T03:26:01.444Z,13.30
2022-12-04T03:29:22.355Z,14.02
2022-12-04T03:32:28.470Z,13.68
2022-12-04T03:35:38.413Z,13.40
2022-12-04T03:39:03.037Z,14.57
2022-12-04T03:42:16.400Z,13.45
2022-12-04T03:45:34.888Z,12.52
2022-12-04T03:48:43.999Z,12.77
2022-12-04T03:52:08.538Z,12.80
2022-12-04T03:55:19.237Z,12.80
2022-12-04T03:58:28.425Z,13.73
2022-12-04T04:01:38.901Z,12.63
2022-12-04T04:04:45.192Z,14.00
2022-12-04T04:07:56.008Z,11.15
2022-12-04T04:11:17.997Z,12.38
2022-12-04T04:15:18.949Z,13.20
2022-12-04T04:18:41.009Z,14.15
2022-12-04T04:22:04.859Z,10.70
2022-12-04T04:25:18.146Z,12.75
2022-12-04T04:28:39.664Z,13.18
2022-12-04T04:32:10.564Z,13.17
2022-12-04T04:35:21.783Z,12.10
2022-12-04T04:38:43.368Z,12.90
2022-12-04T04:41:54.262Z,12.35
2022-12-04T04:45:12.397Z,13.13
2022-12-04T04:48:35.367Z,12.13
2022-12-04T04:51:38.936Z,13.20
2022-12-04T04:54:42.597Z,12.67
2022-12-04T04:57:46.023Z,12.75
2022-12-04T05:00:57.585Z,13.40
2022-12-04T05:04:01.314Z,13.20
2022-12-04T05:07:04.438Z,12.38
2022-12-04T05:10:08.848Z,11.93
2022-12-04T05:13:15.938Z,12.45
2022-12-04T05:16:23.780Z,13.60
2022-12-04T05:19:45.764Z,12.00
2022-12-04T05:22:48.983Z,11.25
2022-12-04T05:25:58.973Z,13.00
2022-12-04T05:29:02.175Z,14.20
2022-12-04T05:32:05.967Z,11.45
2022-12-04T05:35:11.497Z,12.10
2022-12-04T05:38:15.037Z,13.57
2022-12-04T05:41:18.271Z,13.18
2022-12-04T05:44:21.652Z,12.43
2022-12-04T05:47:24.916Z,13.13
2022-12-04T05:50:28.278Z,11.85
2022-12-04T05:53:31.515Z,10.82
2022-12-04T05:56:34.649Z,14.37
2022-12-04T05:59:38.463Z,9.82
2022-12-04T06:02:41.782Z,12.73
2022-12-04T06:05:45.138Z,11.20
2022-12-04T06:08:48.879Z,13.73
2022-12-04T06:11:52.075Z,14.43
2022-12-04T06:14:55.356Z,11.98
2022-12-04T06:17:58.585Z,12.18
2022-12-04T06:21:01.804Z,11.10
2022-12-04T06:24:06.069Z,11.10
2022-12-04T06:27:27.103Z,10.90
2022-12-04T06:30:30.808Z,9.95
2022-12-04T06:33:34.997Z,11.27
2022-12-04T06:36:38.386Z,11.40
2022-12-04T06:39:41.673Z,13.35
2022-12-04T06:42:44.870Z,11.40
2022-12-04T06:45:48.262Z,11.73
2022-12-04T06:48:51.978Z,11.18
2022-12-04T06:51:55.292Z,11.23
2022-12-04T06:54:59.113Z,15.38
2022-12-04T06:58:02.285Z,12.80
2022-12-04T07:01:10.535Z,11.20
2022-12-04T07:04:14.029Z,11.70
2022-12-04T07:07:17.845Z,11.53
2022-12-04T07:10:21.341Z,10.88
2022-12-04T07:13:24.463Z,14.18
2022-12-04T07:16:28.674Z,10.65
2022-12-04T07:19:31.924Z,12.50
2022-12-04T07:22:35.191Z,11.55
2022-12-04T07:25:41.354Z,12.18
2022-12-04T07:28:47.489Z,11.50
2022-12-04T07:31:50.736Z,12.90
2022-12-04T07:34:54.324Z,10.98
2022-12-04T07:37:57.616Z,13.90
2022-12-04T07:41:02.971Z,11.20
2022-12-04T07:44:06.209Z,9.60
2022-12-04T07:47:09.588Z,12.60
2022-12-04T07:50:12.830Z,12.80
2022-12-04T07:53:16.225Z,11.43
2022-12-04T07:56:20.339Z,12.18
2022-12-04T07:59:23.555Z,12.18
2022-12-04T08:02:27.430Z,11.75
2022-12-04T08:05:31.753Z,11.18
2022-12-04T08:08:36.052Z,11.00
2022-12-04T08:11:39.399Z,12.00
2022-12-04T08:14:42.532Z,11.45
2022-12-04T08:17:45.678Z,12.45
2022-12-04T08:20:48.873Z,12.00
2022-12-04T08:23:53.776Z,10.05
2022-12-04T08:26:56.858Z,11.93
2022-12-04T08:30:00.109Z,10.23
2022-12-04T08:33:03.611Z,13.40
2022-12-04T08:36:08.659Z,14.07
2022-12-04T08:39:13.275Z,11.93
2022-12-04T08:42:16.497Z,13.13
2022-12-04T08:45:19.643Z,12.50
2022-12-04T08:48:22.943Z,10.27
2022-12-04T08:51:31.727Z,12.27
2022-12-04T08:54:37.652Z,11.07
2022-12-04T08:57:40.882Z,11.88
2022-12-04T09:00:49.377Z,14.13
2022-12-04T09:03:52.997Z,13.43
2022-12-04T09:06:56.917Z,12.53
2022-12-04T09:10:00.718Z,12.90
2022-12-04T09:13:07.097Z,10.18
2022-12-04T09:16:13.107Z,10.13
2022-12-04T09:19:16.556Z,11.10
2022-12-04T09:22:20.048Z,9.95
2022-12-04T09:25:23.531Z,11.32
2022-12-04T09:28:27.321Z,11.02
2022-12-04T09:31:32.156Z,10.50
2022-12-04T09:34:35.769Z,9.90
2022-12-04T09:37:39.409Z,10.98
2022-12-04T09:41:08.176Z,12.27
2022-12-04T09:44:17.400Z,9.67
2022-12-04T09:47:31.592Z,9.65
2022-12-04T09:50:41.053Z,10.88
2022-12-04T09:54:05.177Z,11.07
2022-12-04T09:57:43.980Z,11.17
2022-12-04T10:00:50.026Z,11.00
2022-12-04T10:03:56.912Z,11.10
2022-12-04T10:07:10.761Z,10.07
2022-12-04T10:10:25.972Z,10.53
2022-12-04T10:14:03.027Z,11.68
2022-12-04T10:17:51.326Z,10.23
2022-12-04T10:21:07.248Z,9.18
2022-12-04T10:24:31.571Z,9.52
2022-12-04T10:27:51.081Z,10.43
2022-12-04T10:30:57.992Z,9.68
2022-12-04T10:34:12.542Z,9.68
2022-12-04T10:37:16.191Z,10.45
2022-12-04T10:40:25.272Z,10.80
2022-12-04T10:43:43.164Z,8.67
2022-12-04T10:46:47.151Z,11.75
2022-12-04T10:50:02.353Z,10.30
2022-12-04T10:53:10.716Z,9.95
2022-12-04T10:56:18.667Z,10.13
2022-12-04T10:59:22.585Z,11.33
2022-12-04T11:02:32.004Z,9.55
2022-12-04T11:05:53.009Z,9.77
2022-12-04T11:08:57.200Z,11.90
2022-12-04T11:12:18.486Z,8.93
2022-12-04T11:15:22.487Z,9.53
2022-12-04T11:18:31.875Z,9.57
2022-12-04T11:21:35.451Z,10.25
2022-12-04T11:24:40.740Z,11.32
2022-12-04T11:27:48.657Z,12.20
2022-12-04T11:30:55.260Z,12.07
2022-12-04T11:34:01.896Z,10.88
2022-12-04T11:37:06.602Z,9.70
2022-12-04T11:40:18.531Z,11.68
2022-12-04T11:43:25.353Z,11.68
2022-12-04T11:46:34.203Z,10.03
2022-12-04T11:49:43.727Z,9.63
2022-12-04T11:53:10.509Z,10.38
2022-12-04T11:56:26.032Z,10.02
2022-12-04T11:59:51.023Z,10.90
2022-12-04T12:03:18.633Z,9.23
2022-12-04T12:06:36.533Z,9.98
2022-12-04T12:10:06.195Z,11.20
2022-12-04T12:13:24.384Z,9.80
2022-12-04T12:16:33.964Z,9.80
2022-12-04T12:20:11.096Z,8.73
2022-12-04T12:23:31.365Z,8.68
2022-12-04T12:27:00.778Z,9.32
2022-12-04T12:30:20.053Z,10.02
2022-12-04T12:33:28.934Z,10.65
2022-12-04T12:36:43.607Z,9.50
2022-12-04T12:40:21.685Z,10.00
2022-12-04T12:43:32.172Z,10.07
2022-12-04T12:46:41.972Z,8.77
2022-12-04T12:49:59.817Z,10.57
2022-12-04T12:53:10.696Z,10.03
2022-12-04T12:56:14.417Z,10.75
2022-12-04T12:59:25.389Z,8.70
2022-12-04T13:02:36.014Z,9.20
2022-12-04T13:05:51.437Z,10.70
2022-12-04T13:09:15.661Z,9.57
2022-12-04T13:12:20.620Z,10.30
2022-12-04T13:15:31.284Z,9.85
2022-12-04T13:18:49.802Z,9.00
2022-12-04T13:22:17.776Z,10.60
2022-12-04T13:25:52.925Z,10.98
2022-12-04T13:29:13.568Z,10.30
2022-12-04T13:32:23.933Z,10.00
2022-12-04T13:36:06.391Z,9.60
2022-12-04T13:39:31.471Z,9.40
2022-12-04T13:42:34.784Z,11.80
2022-12-04T13:45:40.868Z,11.00
2022-12-04T13:48:44.449Z,10.40
2022-12-04T13:51:49.099Z,13.15
2022-12-04T13:55:00.005Z,13.60
2022-12-04T13:58:12.149Z,12.55
2022-12-04T14:01:42.347Z,11.48
2022-12-04T14:04:53.219Z,12.50
2022-12-04T14:08:07.293Z,11.60
2022-12-04T14:11:17.984Z,13.10
2022-12-04T14:14:51.564Z,12.95
2022-12-04T14:18:11.652Z,12.90
2022-12-04T14:21:14.995Z,13.63
2022-12-04T14:24:39.886Z,14.38
2022-12-04T14:27:46.682Z,12.70
2022-12-04T14:31:08.595Z,13.23
2022-12-04T14:34:23.333Z,12.80
2022-12-04T14:37:37.986Z,13.15
2022-12-04T14:40:48.115Z,15.48
2022-12-04T14:43:52.900Z,14.77
2022-12-04T14:47:12.096Z,14.65
2022-12-04T14:50:55.716Z,14.48
2022-12-04T14:54:20.414Z,14.07
2022-12-04T14:57:50.304Z,13.52
2022-12-04T15:01:00.428Z,10.82
2022-12-04T15:04:29.063Z,9.38
2022-12-04T15:07:33.223Z,7.10
2022-12-04T15:10:57.868Z,8.93
2022-12-04T15:14:14.965Z,9.53
2022-12-04T15:17:19.688Z,8.80
2022-12-04T15:20:24.050Z,8.38
2022-12-04T15:23:34.633Z,7.47
2022-12-04T15:26:39.698Z,8.82
2022-12-04T15:29:48.385Z,6.13
2022-12-04T15:32:53.765Z,7.25
2022-12-04T15:36:05.517Z,7.90
2022-12-04T15:39:12.830Z,7.47
2022-12-04T15:42:24.793Z,9.50
2022-12-04T15:45:31.945Z,7.80
2022-12-04T15:48:36.064Z,7.57
2022-12-04T15:51:39.603Z,9.00
2022-12-04T15:54:48.320Z,7.88
2022-12-04T15:58:04.637Z,9.77
2022-12-04T16:01:11.799Z,7.72
2022-12-04T16:04:28.513Z,8.30
2022-12-04T16:07:32.439Z,7.78
2022-12-04T16:10:36.862Z,6.57
2022-12-04T16:13:40.365Z,7.60
2022-12-04T16:16:47.194Z,10.35
2022-12-04T16:19:50.700Z,7.28
2022-12-04T16:22:55.372Z,8.88
2022-12-04T16:25:58.592Z,9.73
2022-12-04T16:29:01.945Z,7.88
2022-12-04T16:32:06.510Z,6.65
2022-12-04T16:35:16.138Z,7.28
2022-12-04T16:38:19.698Z,8.82
2022-12-04T16:41:23.203Z,8.83
2022-12-04T16:44:26.656Z,8.80
2022-12-04T16:47:30.092Z,8.02
2022-12-04T16:50:33.560Z,8.13
2022-12-04T16:53:37.044Z,7.55
2022-12-04T16:56:40.839Z,11.87
2022-12-04T16:59:44.362Z,7.68
2022-12-04T17:02:49.089Z,7.78
2022-12-04T17:05:52.571Z,9.10
2022-12-04T17:08:56.264Z,7.53
2022-12-04T17:11:59.573Z,8.03
2022-12-04T17:15:03.029Z,8.90
2022-12-04T17:18:11.373Z,7.43
2022-12-04T17:21:16.876Z,7.68
2022-12-04T17:24:20.445Z,7.82
2022-12-04T17:27:24.987Z,6.45
2022-12-04T17:30:32.820Z,6.78
2022-12-04T17:33:39.253Z,6.70
2022-12-04T17:36:42.660Z,6.25
2022-12-04T17:39:46.423Z,8.47
2022-12-04T17:42:49.890Z,8.93
2022-12-04T17:45:53.349Z,7.15
2022-12-04T17:49:00.436Z,7.32
2022-12-04T17:52:06.678Z,7.33
2022-12-04T17:55:09.932Z,6.63
2022-12-04T17:58:13.465Z,5.75
2022-12-04T18:01:23.779Z,6.35
2022-12-04T18:04:27.300Z,5.90
2022-12-04T18:07:31.649Z,4.80
2022-12-04T18:10:35.777Z,5.32
2022-12-04T18:13:39.517Z,5.72
2022-12-04T18:16:45.857Z,6.28
2022-12-04T18:19:49.257Z,4.95
2022-12-04T18:22:52.739Z,7.83
2022-12-04T18:26:00.124Z,5.80
2022-12-04T18:29:04.921Z,6.75
2022-12-04T18:32:08.562Z,6.20
2022-12-04T18:35:11.946Z,6.03
2022-12-04T18:38:15.679Z,5.10
2022-12-04T18:41:19.195Z,9.07
2022-12-04T18:44:23.027Z,6.25
2022-12-04T18:47:27.023Z,5.53
2022-12-04T18:50:30.545Z,7.00
2022-12-04T18:53:34.407Z,6.82
2022-12-04T18:56:38.026Z,5.47
2022-12-04T18:59:41.455Z,6.03
2022-12-04T19:02:46.292Z,5.83
2022-12-04T19:05:52.857Z,5.53
2022-12-04T19:08:58.175Z,5.43
2022-12-04T19:12:01.749Z,7.13
2022-12-04T19:15:05.606Z,9.38
2022-12-04T19:18:09.525Z,6.93
2022-12-04T19:21:14.703Z,5.78
2022-12-04T19:24:18.368Z,6.75
2022-12-04T19:27:21.946Z,5.20
2022-12-04T19:30:25.505Z,6.80
2022-12-04T19:33:29.488Z,5.45
2022-12-04T19:36:35.561Z,6.05
2022-12-04T19:39:39.228Z,7.85
2022-12-04T19:42:47.689Z,5.57
2022-12-04T19:45:51.074Z,7.97
2022-12-04T19:48:58.195Z,6.05
2022-12-04T19:52:01.831Z,5.38
2022-12-04T19:55:06.246Z,5.93
2022-12-04T19:58:09.852Z,6.75
2022-12-04T20:01:15.773Z,5.40
2022-12-04T20:04:19.456Z,6.22
2022-12-04T20:07:22.933Z,6.97
2022-12-04T20:10:26.434Z,5.82
2022-12-04T20:13:30.365Z,5.00
2022-12-04T20:16:34.887Z,6.95
2022-12-04T20:19:38.460Z,6.40
2022-12-04T20:22:41.782Z,4.78
2022-12-04T20:25:45.220Z,5.70
2022-12-04T20:28:48.721Z,5.65
2022-12-04T20:31:54.144Z,5.10
2022-12-04T20:34:57.544Z,6.15
2022-12-04T20:38:01.114Z,6.37
2022-12-04T20:41:09.134Z,5.93
2022-12-04T20:44:15.551Z,5.65
2022-12-04T20:47:19.249Z,6.68
2022-12-04T20:50:22.565Z,6.00
2022-12-04T20:53:26.113Z,5.38
2022-12-04T20:56:33.029Z,6.35
2022-12-04T20:59:36.933Z,6.38
2022-12-04T21:02:40.444Z,5.85
2022-12-04T21:05:49.822Z,5.63
2022-12-04T21:08:53.629Z,6.30
2022-12-04T21:11:57.189Z,6.57
2022-12-04T21:15:19.299Z,5.30
2022-12-04T21:18:23.067Z,4.83
2022-12-04T21:21:29.709Z,5.72
2022-12-04T21:24:38.256Z,6.10
2022-12-04T21:27:41.413Z,5.93
2022-12-04T21:30:44.754Z,6.37
2022-12-04T21:33:48.216Z,6.50
2022-12-04T21:36:51.422Z,6.65
2022-12-04T21:39:54.781Z,6.25
2022-12-04T21:42:57.999Z,5.37
2022-12-04T21:46:09.418Z,6.43
2022-12-04T21:49:13.860Z,6.50
2022-12-04T21:52:18.460Z,5.65
2022-12-04T21:55:21.645Z,6.00
2022-12-04T21:58:26.056Z,4.63
2022-12-04T22:01:29.422Z,4.93
2022-12-04T22:04:32.628Z,4.43
2022-12-04T22:07:35.861Z,5.32
2022-12-04T22:10:44.277Z,6.27
2022-12-04T22:13:47.496Z,6.13
2022-12-04T22:16:51.858Z,4.85
2022-12-04T22:19:55.686Z,5.88
2022-12-04T22:22:59.598Z,5.28
2022-12-04T22:26:08.393Z,5.35
2022-12-04T22:29:41.899Z,6.30
2022-12-04T22:32:34.848Z,4.68
2022-12-04T22:35:38.096Z,7.18
2022-12-04T22:39:05.986Z,6.07
2022-12-04T22:42:05.391Z,6.97
2022-12-04T22:45:08.970Z,6.28
2022-12-04T22:48:12.110Z,5.97
2022-12-04T22:51:19.572Z,6.50
2022-12-04T22:54:22.729Z,6.93
2022-12-04T22:57:26.475Z,8.18
2022-12-04T23:00:29.760Z,5.25
2022-12-04T23:03:33.626Z,5.07
2022-12-04T23:06:36.982Z,7.57
2022-12-04T23:09:40.495Z,6.82
2022-12-04T23:12:43.768Z,6.25
2022-12-04T23:15:49.658Z,5.65
2022-12-04T23:18:53.664Z,7.27
2022-12-04T23:21:57.550Z,5.72
2022-12-04T23:25:00.819Z,6.88
2022-12-04T23:28:04.111Z,7.15
2022-12-04T23:31:07.476Z,6.20
2022-12-04T23:34:10.681Z,5.77
2022-12-04T23:37:13.887Z,6.97
2022-12-04T23:40:17.124Z,7.82
2022-12-04T23:43:20.617Z,6.18
2022-12-04T23:46:27.453Z,5.30
2022-12-04T23:49:30.839Z,6.35
2022-12-04T23:52:34.031Z,6.38
2022-12-04T23:55:37.372Z,5.93
2022-12-04T23:58:42.215Z,5.85
